首页
METAR-TAF:

METAR-TAF

机场 :

Kindersley, 薩斯喀徹溫, 加拿大

纬度: 51-31N, 经度: 109-10W, 海拔: 694米

当前天气观测

该预报发布于1小时和13分钟前的16:00 UTC
风速2节,风向多变
温度 14°C
湿度 55%
气压 1016 hPa
能見度: 24.1公里
少量云层高于1500英尺
少量云层高于3200英尺
少量云层高于24000英尺

METAR: CYKY 051600Z VRB02KT 15SM FEW015 FEW032 FEW240 14/05 A3001 RMK SC1CF1CI1 SC TR CF TR CI TR SLP172 DENSITY ALT 2600FT

时间: 11:13 (17:13 UTC)


TAF: 丢失

超过4000个机场的气象观测和天气预报(METAR&TAF报告)。

可查询的气象台以黄色和红色小点在地图上表示。

将鼠标移到小点上方,可查看气象台名称。

然后点击查看天气观测和预报。

如需切换地图:点击带黑十字的绿色按钮放大地图;点击带横线的绿色按钮缩小地图;或者点击绿色箭头查看邻近地区的地图。


METAR-TAF: